LFMN/NCE METAR and TAF weather

Enter ICAO airport designator
Station Type Date Time Source
LFMN METAR 2022/08/16 20:00 UTC NOAA

LFMN 162000Z 07005KT 030V100 9999 FEW016 27/23 Q1011 NOSIG


Station Type Date Time Source
LFMN Decoded METAR 2022/08/16 20:00 UTC NOAA

Nice, France (LFMN) 43-39N 007-12E 10M
Aug 16, 2022 - 04:00 PM EDT / 2022.08.16 2000 UTC
Wind: from the ENE (070 degrees) at 6 MPH (5 KT) (direction variable):0
Visibility: greater than 7 mile(s):0
Sky conditions: mostly clear
Temperature: 80 F (27 C)
Dew Point: 73 F (23 C)
Relative Humidity: 78%
Pressure (altimeter): 29.85 in. Hg (1011 hPa)
ob: LFMN 162000Z 07005KT 030V100 9999 FEW016 27/23 Q1011 NOSIG
cycle: 20

Station Type Date Time Source
LFMN TAF 2022/08/16 15:24 UTC NOAA

TAF LFMN 161400Z 1615/1721 13010KT CAVOK
BECMG 1620/1622 34008KT
BECMG 1707/1709 09020G30KT
TEMPO 1709/1718 VRB30G40KT 2000 TSRA SCT040CB
BECMG 1713/1714 BKN050
BECMG 1717/1718 34015KT CAVOK

Example: see airport list